Time;durP1;ratioP1;P1;durP2;ratioP2;P2;SDS_P1;SDS_P2;PMS_P1;PMS_P2;Temp;Humidity;BMP_temperature;BMP_pressure;BME280_temperature;BME280_humidity;BME280_pressure;Samples;Min_cycle;Max_cycle;Signal;HPM_P1;HPM_P2
2024/01/16 00:02:05;;;;;;;8.57;5.03;;;;;;;;;;5047975;28;20213;-33
2024/01/16 00:04:41;;;;;;;3.37;2.67;;;;;;;;;;5042920;28;20212;-32
2024/01/16 00:07:10;;;;;;;6.00;3.07;;;;;;;;;;5035965;28;20617;-33
2024/01/16 00:09:42;;;;;;;3.20;2.03;;;;;;;;;;5046143;28;20269;-35
2024/01/16 00:17:24;;;;;;;4.53;3.00;;;;;;;;;;5026731;28;20199;-32
2024/01/16 00:20:00;;;;;;;5.50;2.90;;;;;;;;;;5023496;28;20649;-37
2024/01/16 00:22:33;;;;;;;7.70;4.97;;;;;;;;;;5039793;28;20210;-34
2024/01/16 00:25:06;;;;;;;5.83;3.67;;;;;;;;;;5014220;28;20277;-33
2024/01/16 00:27:42;;;;;;;3.80;2.23;;;;;;;;;;5031365;28;20215;-34
2024/01/16 00:30:13;;;;;;;6.03;3.40;;;;;;;;;;5023482;28;20229;-33
2024/01/16 00:32:43;;;;;;;6.20;3.97;;;;;;;;;;5024845;28;20366;-33
2024/01/16 00:35:12;;;;;;;6.63;4.17;;;;;;;;;;5023115;28;20201;-32
2024/01/16 00:37:45;;;;;;;5.53;3.00;;;;;;;;;;5036588;28;20286;-33
2024/01/16 00:40:14;;;;;;;3.13;2.33;;;;;;;;;;5029182;28;20230;-34
2024/01/16 00:42:46;;;;;;;6.63;3.07;;;;;;;;;;5012270;28;20209;-33
2024/01/16 00:45:17;;;;;;;4.13;3.00;;;;;;;;;;5012953;28;20199;-31
2024/01/16 00:53:02;;;;;;;5.43;2.70;;;;;;;;;;5050578;28;20246;-33
2024/01/16 00:55:31;;;;;;;5.23;2.60;;;;;;;;;;5052681;28;20237;-32
2024/01/16 00:58:00;;;;;;;6.10;2.67;;;;;;;;;;5048371;28;20210;-31
2024/01/16 01:00:34;;;;;;;4.53;2.43;;;;;;;;;;5058806;28;20237;-32
2024/01/16 01:05:37;;;;;;;3.73;2.47;;;;;;;;;;5044022;28;20210;-31
2024/01/16 01:08:09;;;;;;;2.23;2.00;;;;;;;;;;5059976;28;20210;-36
2024/01/16 01:10:37;;;;;;;4.73;2.83;;;;;;;;;;5057479;28;20291;-34
2024/01/16 01:13:10;;;;;;;3.03;2.37;;;;;;;;;;5053239;28;20225;-29
2024/01/16 01:15:42;;;;;;;3.97;2.30;;;;;;;;;;5040999;28;20206;-36
2024/01/16 01:18:10;;;;;;;3.50;2.73;;;;;;;;;;5050943;28;20228;-30
2024/01/16 01:20:38;;;;;;;3.40;2.80;;;;;;;;;;5048790;28;20214;-35
2024/01/16 01:23:12;;;;;;;3.33;2.40;;;;;;;;;;5051918;28;20241;-35
2024/01/16 01:25:43;;;;;;;3.43;2.50;;;;;;;;;;5052743;28;20248;-31
2024/01/16 01:28:13;;;;;;;5.83;2.70;;;;;;;;;;5051461;28;20205;-33
2024/01/16 01:30:44;;;;;;;3.53;2.70;;;;;;;;;;5044132;28;20226;-33
2024/01/16 01:33:16;;;;;;;4.40;2.30;;;;;;;;;;5051109;28;20205;-35
2024/01/16 01:35:47;;;;;;;3.73;2.30;;;;;;;;;;5040177;28;20230;-31
2024/01/16 01:38:18;;;;;;;3.10;2.80;;;;;;;;;;5051195;28;20206;-35
2024/01/16 01:40:47;;;;;;;2.87;2.20;;;;;;;;;;5051663;28;20614;-34
2024/01/16 01:43:21;;;;;;;2.50;2.00;;;;;;;;;;5046648;28;20213;-33
2024/01/16 01:45:51;;;;;;;3.97;2.13;;;;;;;;;;5047649;28;20252;-32
2024/01/16 01:48:24;;;;;;;4.87;2.60;;;;;;;;;;5051332;28;20205;-36
2024/01/16 01:50:52;;;;;;;2.77;2.27;;;;;;;;;;5042270;28;20225;-32
2024/01/16 01:53:25;;;;;;;3.40;2.40;;;;;;;;;;5059420;28;20202;-29
2024/01/16 01:55:57;;;;;;;4.67;2.63;;;;;;;;;;5050162;28;20299;-34
2024/01/16 01:58:25;;;;;;;3.43;2.50;;;;;;;;;;5041489;28;20210;-35
2024/01/16 02:00:54;;;;;;;3.40;2.40;;;;;;;;;;5038035;28;20242;-30
2024/01/16 02:03:22;;;;;;;5.20;2.60;;;;;;;;;;5042877;28;20581;-36
2024/01/16 02:05:54;;;;;;;4.13;2.37;;;;;;;;;;5038974;28;20325;-37
2024/01/16 02:08:28;;;;;;;3.97;2.37;;;;;;;;;;5051266;28;20218;-34
2024/01/16 02:10:57;;;;;;;3.10;2.63;;;;;;;;;;5051399;28;20230;-34
2024/01/16 02:13:26;;;;;;;3.50;2.20;;;;;;;;;;5048916;28;20686;-31
2024/01/16 02:15:56;;;;;;;3.77;2.30;;;;;;;;;;5059742;28;20300;-32
2024/01/16 02:18:24;;;;;;;4.57;2.60;;;;;;;;;;5046554;28;20201;-33
2024/01/16 02:20:53;;;;;;;2.80;2.30;;;;;;;;;;5054947;28;20222;-33
2024/01/16 02:23:30;;;;;;;4.60;2.60;;;;;;;;;;5054959;28;20208;-32
2024/01/16 02:25:59;;;;;;;4.57;2.40;;;;;;;;;;5054210;28;20206;-31
2024/01/16 02:28:31;;;;;;;3.70;2.37;;;;;;;;;;5052651;28;20202;-39
2024/01/16 02:31:02;;;;;;;4.00;2.50;;;;;;;;;;5048236;28;20230;-34
2024/01/16 02:33:30;;;;;;;2.83;1.93;;;;;;;;;;5062698;28;20213;-31
2024/01/16 02:36:04;;;;;;;2.30;2.10;;;;;;;;;;5040772;28;20245;-34
2024/01/16 02:38:40;;;;;;;3.60;2.67;;;;;;;;;;5062880;28;20202;-31
2024/01/16 02:41:09;;;;;;;5.03;2.73;;;;;;;;;;5062904;28;20549;-31
2024/01/16 02:43:38;;;;;;;3.27;2.30;;;;;;;;;;5049479;28;20537;-31
2024/01/16 02:46:06;;;;;;;3.60;2.17;;;;;;;;;;5056051;28;20201;-35
2024/01/16 02:48:35;;;;;;;2.70;2.23;;;;;;;;;;5052686;28;20531;-33
2024/01/16 02:53:36;;;;;;;5.33;2.50;;;;;;;;;;5060705;28;20574;-34
2024/01/16 02:56:05;;;;;;;4.97;2.37;;;;;;;;;;5055237;28;20214;-32
2024/01/16 02:58:33;;;;;;;3.73;2.47;;;;;;;;;;5052867;28;20269;-32
2024/01/16 03:01:01;;;;;;;2.83;1.97;;;;;;;;;;5061913;28;20285;-31
2024/01/16 03:03:30;;;;;;;4.63;2.33;;;;;;;;;;5053569;28;20210;-32
2024/01/16 03:05:58;;;;;;;1.70;1.60;;;;;;;;;;5051231;28;20220;-34
2024/01/16 03:08:26;;;;;;;2.10;1.93;;;;;;;;;;5044855;28;20209;-34
2024/01/16 03:10:54;;;;;;;4.37;2.70;;;;;;;;;;5060382;28;20257;-30
2024/01/16 03:13:22;;;;;;;3.20;2.20;;;;;;;;;;5062242;28;20210;-33
2024/01/16 03:15:50;;;;;;;3.63;2.40;;;;;;;;;;5035475;28;20218;-32
2024/01/16 03:18:18;;;;;;;3.00;2.47;;;;;;;;;;5060480;28;20213;-35
2024/01/16 03:20:45;;;;;;;2.67;1.73;;;;;;;;;;5044380;28;20232;-33
2024/01/16 03:23:13;;;;;;;2.30;1.63;;;;;;;;;;5059835;28;20216;-31
2024/01/16 03:25:42;;;;;;;2.30;1.93;;;;;;;;;;5053757;28;20209;-29
2024/01/16 03:28:17;;;;;;;2.73;2.13;;;;;;;;;;5054320;28;20213;-33
2024/01/16 03:30:45;;;;;;;3.97;2.43;;;;;;;;;;5051921;28;20229;-33
2024/01/16 03:33:13;;;;;;;2.77;1.97;;;;;;;;;;5060862;28;20216;-30
2024/01/16 03:35:50;;;;;;;4.40;2.90;;;;;;;;;;5047199;28;20208;-32
2024/01/16 03:38:21;;;;;;;2.43;2.10;;;;;;;;;;5052674;28;20213;-33
2024/01/16 03:40:50;;;;;;;2.90;2.20;;;;;;;;;;5060340;28;20229;-32
2024/01/16 03:43:20;;;;;;;3.30;2.63;;;;;;;;;;5054067;28;20214;-33
2024/01/16 03:45:49;;;;;;;5.00;3.00;;;;;;;;;;5043108;28;20209;-35
2024/01/16 03:48:17;;;;;;;3.27;2.43;;;;;;;;;;5069676;28;20208;-30
2024/01/16 03:50:47;;;;;;;3.43;2.13;;;;;;;;;;5045591;28;20230;-33
2024/01/16 03:53:14;;;;;;;4.00;2.30;;;;;;;;;;5049868;28;20214;-34
2024/01/16 03:55:41;;;;;;;6.83;2.60;;;;;;;;;;5050689;28;20229;-31
2024/01/16 03:58:09;;;;;;;3.23;2.33;;;;;;;;;;5035843;28;20203;-36
2024/01/16 04:00:38;;;;;;;2.50;2.30;;;;;;;;;;5044233;28;20227;-33
2024/01/16 04:03:07;;;;;;;5.40;2.40;;;;;;;;;;5051613;28;20213;-31
2024/01/16 04:05:36;;;;;;;3.67;2.43;;;;;;;;;;5041023;28;20198;-34
2024/01/16 04:08:04;;;;;;;2.73;2.17;;;;;;;;;;5048604;28;20206;-32
2024/01/16 04:10:34;;;;;;;3.87;2.53;;;;;;;;;;5060710;28;20237;-34
2024/01/16 04:13:02;;;;;;;4.83;2.40;;;;;;;;;;5051146;28;20276;-34
2024/01/16 04:15:32;;;;;;;3.20;2.10;;;;;;;;;;5036890;28;20292;-30
2024/01/16 04:18:01;;;;;;;3.40;2.40;;;;;;;;;;5046811;28;20301;-35
2024/01/16 04:20:29;;;;;;;4.07;2.30;;;;;;;;;;5037293;28;20329;-32
2024/01/16 04:22:57;;;;;;;3.57;2.40;;;;;;;;;;5058109;28;20225;-35
2024/01/16 04:25:25;;;;;;;2.87;2.27;;;;;;;;;;5054823;28;20702;-29
2024/01/16 04:27:52;;;;;;;2.47;2.23;;;;;;;;;;5049664;28;20218;-33
2024/01/16 04:30:21;;;;;;;3.13;2.10;;;;;;;;;;5051265;28;20221;-34
2024/01/16 04:32:51;;;;;;;3.53;2.23;;;;;;;;;;5050669;28;20280;-35
2024/01/16 04:35:19;;;;;;;2.80;1.97;;;;;;;;;;5038979;28;20637;-33
2024/01/16 04:37:47;;;;;;;2.97;2.13;;;;;;;;;;5046802;28;20201;-35
2024/01/16 04:40:15;;;;;;;2.83;2.00;;;;;;;;;;5052104;28;20236;-31
2024/01/16 04:42:43;;;;;;;3.37;2.30;;;;;;;;;;5044178;28;20529;-36
2024/01/16 04:45:10;;;;;;;5.73;2.17;;;;;;;;;;5041479;28;20213;-32
2024/01/16 04:47:38;;;;;;;3.97;2.40;;;;;;;;;;5040362;28;20202;-31
2024/01/16 04:50:31;;;;;;;5.50;2.03;;;;;;;;;;5045983;28;20253;-30
2024/01/16 04:53:01;;;;;;;4.80;2.43;;;;;;;;;;5050324;28;20221;-31
2024/01/16 04:55:54;;;;;;;2.50;2.30;;;;;;;;;;5061237;28;20239;-29
2024/01/16 04:58:22;;;;;;;2.90;2.00;;;;;;;;;;5051941;28;20229;-33
2024/01/16 05:00:50;;;;;;;2.50;2.10;;;;;;;;;;5038521;28;20284;-35
2024/01/16 05:03:20;;;;;;;4.53;2.13;;;;;;;;;;5052482;28;20201;-33
2024/01/16 05:05:51;;;;;;;2.23;2.03;;;;;;;;;;5041606;28;20251;-31
2024/01/16 05:08:19;;;;;;;2.53;2.00;;;;;;;;;;5059366;28;20284;-35
2024/01/16 05:10:47;;;;;;;2.00;1.80;;;;;;;;;;5049840;28;20547;-36
2024/01/16 05:13:15;;;;;;;4.33;2.17;;;;;;;;;;5048282;28;20244;-35
2024/01/16 05:15:58;;;;;;;4.07;1.77;;;;;;;;;;5040171;28;20203;-33
2024/01/16 05:18:34;;;;;;;2.40;1.90;;;;;;;;;;5041293;28;20273;-31
2024/01/16 05:21:06;;;;;;;2.30;2.10;;;;;;;;;;5046472;28;20230;-33
2024/01/16 05:23:37;;;;;;;3.17;2.27;;;;;;;;;;5050881;28;20218;-33
2024/01/16 05:26:08;;;;;;;3.03;1.97;;;;;;;;;;5059041;28;20571;-35
2024/01/16 05:28:36;;;;;;;2.97;2.47;;;;;;;;;;5053543;28;20232;-36
2024/01/16 05:31:09;;;;;;;2.70;2.50;;;;;;;;;;5042607;28;20512;-31
2024/01/16 05:33:41;;;;;;;3.37;2.47;;;;;;;;;;5042854;28;20206;-32
2024/01/16 05:36:13;;;;;;;2.40;2.10;;;;;;;;;;5037184;28;20214;-36
2024/01/16 05:38:47;;;;;;;2.97;2.30;;;;;;;;;;5044067;28;20198;-34
2024/01/16 05:41:15;;;;;;;5.10;2.20;;;;;;;;;;5051816;28;20214;-33
2024/01/16 05:43:49;;;;;;;3.43;2.70;;;;;;;;;;5041346;28;20252;-33
2024/01/16 05:46:21;;;;;;;4.10;2.00;;;;;;;;;;5055625;28;20197;-36
2024/01/16 05:48:59;;;;;;;5.07;2.77;;;;;;;;;;5047187;28;20293;-32
2024/01/16 05:51:30;;;;;;;3.77;1.97;;;;;;;;;;5045137;28;20218;-34
2024/01/16 05:54:00;;;;;;;60.37;55.13;;;;;;;;;;5057778;28;20194;-29
2024/01/16 05:56:30;;;;;;;42.23;38.67;;;;;;;;;;5055742;28;20211;-32
2024/01/16 05:59:03;;;;;;;36.63;33.70;;;;;;;;;;5047291;28;20199;-33
2024/01/16 06:01:34;;;;;;;23.77;21.70;;;;;;;;;;5065423;28;20221;-31
2024/01/16 06:04:05;;;;;;;5.53;4.97;;;;;;;;;;5053431;28;20214;-32
2024/01/16 06:06:34;;;;;;;21.57;19.77;;;;;;;;;;5055636;28;20213;-33
2024/01/16 06:09:07;;;;;;;17.37;15.70;;;;;;;;;;5053988;28;20297;-29
2024/01/16 06:11:38;;;;;;;11.00;10.10;;;;;;;;;;5053506;28;20561;-36
2024/01/16 06:14:06;;;;;;;16.67;15.23;;;;;;;;;;5052164;28;20205;-35
2024/01/16 06:16:38;;;;;;;6.43;5.83;;;;;;;;;;5046744;28;20296;-35
2024/01/16 06:19:09;;;;;;;6.63;6.03;;;;;;;;;;5050463;28;20267;-31
2024/01/16 06:21:59;;;;;;;12.80;11.70;;;;;;;;;;5050659;28;20202;-34
2024/01/16 06:24:36;;;;;;;11.27;10.27;;;;;;;;;;5063574;28;20212;-31
2024/01/16 06:27:06;;;;;;;10.57;9.67;;;;;;;;;;5054784;28;20212;-31
2024/01/16 06:29:35;;;;;;;6.47;5.83;;;;;;;;;;5041982;28;20248;-34
2024/01/16 06:32:09;;;;;;;8.63;7.93;;;;;;;;;;5050332;28;20268;-33
2024/01/16 06:34:37;;;;;;;8.53;7.37;;;;;;;;;;5043549;28;20198;-33
2024/01/16 06:37:10;;;;;;;6.40;5.80;;;;;;;;;;5055106;28;20320;-35
2024/01/16 06:39:40;;;;;;;3.80;3.23;;;;;;;;;;5054586;28;20214;-34
2024/01/16 06:42:14;;;;;;;6.30;5.67;;;;;;;;;;5055096;28;20190;-35
2024/01/16 06:44:45;;;;;;;5.80;3.90;;;;;;;;;;5050976;28;20210;-32
2024/01/16 06:47:14;;;;;;;3.97;3.67;;;;;;;;;;5062546;28;20743;-32
2024/01/16 06:49:45;;;;;;;4.07;3.27;;;;;;;;;;5047594;28;20312;-33
2024/01/16 06:52:16;;;;;;;4.53;3.63;;;;;;;;;;5050369;28;20672;-34
2024/01/16 06:54:46;;;;;;;5.77;4.30;;;;;;;;;;5054963;28;20202;-31
2024/01/16 06:57:17;;;;;;;5.20;4.23;;;;;;;;;;5054138;28;20281;-32
2024/01/16 06:59:46;;;;;;;4.03;3.63;;;;;;;;;;5043182;28;20238;-31
2024/01/16 07:02:14;;;;;;;3.30;2.90;;;;;;;;;;5050751;28;20198;-30
2024/01/16 07:04:45;;;;;;;4.33;3.10;;;;;;;;;;5039512;28;20302;-33
2024/01/16 07:07:14;;;;;;;4.27;3.60;;;;;;;;;;5054881;28;20221;-32
2024/01/16 07:09:47;;;;;;;2.97;2.73;;;;;;;;;;5054296;28;20213;-31
2024/01/16 07:12:21;;;;;;;3.63;3.17;;;;;;;;;;5062665;28;20221;-37
2024/01/16 07:14:52;;;;;;;3.77;2.50;;;;;;;;;;5043478;28;20210;-32
2024/01/16 07:17:20;;;;;;;3.33;2.60;;;;;;;;;;5051066;28;20206;-32
2024/01/16 07:19:48;;;;;;;4.97;3.20;;;;;;;;;;5048597;28;20228;-35
2024/01/16 07:22:23;;;;;;;3.13;2.70;;;;;;;;;;5300844;22;20257;-27
2024/01/16 07:25:15;;;;;;;5.47;3.00;;;;;;;;;;5054460;28;20569;-28
2024/01/16 07:27:49;;;;;;;3.77;2.23;;;;;;;;;;5061690;28;20209;-28
2024/01/16 07:30:18;;;;;;;4.63;2.80;;;;;;;;;;5043458;28;20226;-26
2024/01/16 07:32:51;;;;;;;4.03;2.23;;;;;;;;;;5140144;23;20241;-34
2024/01/16 07:38:20;;;;;;;4.17;2.80;;;;;;;;;;5131317;22;20242;-35
2024/01/16 07:40:49;;;;;;;4.10;2.53;;;;;;;;;;5038246;28;20249;-33
2024/01/16 07:43:31;;;;;;;3.80;2.70;;;;;;;;;;5045787;28;20206;-31
2024/01/16 07:46:03;;;;;;;4.07;2.70;;;;;;;;;;5042295;28;20632;-31
2024/01/16 07:48:32;;;;;;;3.00;2.10;;;;;;;;;;5051619;28;20225;-31
2024/01/16 07:51:02;;;;;;;3.03;2.30;;;;;;;;;;5028873;28;20234;-36
2024/01/16 07:53:34;;;;;;;4.73;2.57;;;;;;;;;;5051944;28;20221;-33
2024/01/16 07:56:02;;;;;;;4.90;2.93;;;;;;;;;;5047727;28;20664;-30
2024/01/16 07:58:36;;;;;;;2.97;2.57;;;;;;;;;;5037574;28;20198;-34
2024/01/16 08:01:08;;;;;;;3.33;2.57;;;;;;;;;;5033765;28;20285;-32
2024/01/16 08:03:42;;;;;;;6.33;2.70;;;;;;;;;;5040334;28;20220;-35
2024/01/16 08:06:12;;;;;;;3.80;2.70;;;;;;;;;;5039040;28;20198;-32
2024/01/16 08:08:40;;;;;;;5.57;2.90;;;;;;;;;;5033827;28;20213;-33
2024/01/16 08:11:12;;;;;;;6.27;3.53;;;;;;;;;;5052697;28;20364;-37
2024/01/16 08:13:49;;;;;;;2.97;2.40;;;;;;;;;;5044565;28;20218;-33
2024/01/16 08:16:21;;;;;;;4.87;2.67;;;;;;;;;;5029217;28;20230;-32
2024/01/16 08:18:54;;;;;;;7.67;6.20;;;;;;;;;;5024286;28;20210;-30
2024/01/16 08:21:28;;;;;;;6.00;4.37;;;;;;;;;;5034906;28;20194;-33
2024/01/16 08:24:02;;;;;;;8.53;5.03;;;;;;;;;;5048056;28;20198;-34
2024/01/16 08:26:35;;;;;;;4.77;3.17;;;;;;;;;;5041161;28;20210;-31
2024/01/16 08:29:11;;;;;;;5.33;3.00;;;;;;;;;;5038993;28;20198;-30
2024/01/16 08:31:40;;;;;;;6.20;3.30;;;;;;;;;;5042002;28;20210;-30
2024/01/16 08:34:15;;;;;;;4.50;3.13;;;;;;;;;;5038101;28;20230;-32
2024/01/16 08:36:47;;;;;;;5.03;3.63;;;;;;;;;;5034971;28;20221;-31
2024/01/16 08:39:15;;;;;;;4.37;3.10;;;;;;;;;;5052820;28;20225;-35
2024/01/16 08:41:42;;;;;;;6.27;2.80;;;;;;;;;;5040674;28;20671;-35
2024/01/16 08:44:17;;;;;;;4.73;2.97;;;;;;;;;;5036133;28;20360;-36
2024/01/16 08:46:49;;;;;;;6.37;3.17;;;;;;;;;;5033235;28;20248;-37
2024/01/16 08:49:20;;;;;;;4.27;3.17;;;;;;;;;;5033431;28;20871;-32
2024/01/16 08:51:49;;;;;;;5.57;3.33;;;;;;;;;;5033638;28;20294;-35
2024/01/16 08:54:18;;;;;;;8.17;3.50;;;;;;;;;;5040566;28;20408;-34
2024/01/16 08:56:47;;;;;;;4.70;3.20;;;;;;;;;;5040902;28;20214;-31
2024/01/16 08:59:19;;;;;;;4.80;3.30;;;;;;;;;;5028709;28;20229;-35
2024/01/16 09:01:57;;;;;;;4.63;3.13;;;;;;;;;;5032153;28;20581;-31
2024/01/16 09:04:25;;;;;;;4.47;3.33;;;;;;;;;;5027560;28;20207;-33
2024/01/16 09:06:53;;;;;;;6.13;3.47;;;;;;;;;;5032186;28;20227;-35
2024/01/16 09:09:27;;;;;;;4.10;3.03;;;;;;;;;;5030595;28;20569;-32
2024/01/16 09:11:57;;;;;;;3.43;2.83;;;;;;;;;;5024927;28;20653;-33
2024/01/16 09:14:33;;;;;;;5.23;3.13;;;;;;;;;;5028394;28;20276;-34
2024/01/16 09:17:04;;;;;;;5.13;2.67;;;;;;;;;;5034338;28;20198;-31
2024/01/16 09:19:37;;;;;;;3.67;2.60;;;;;;;;;;5025014;28;20227;-35
2024/01/16 09:22:08;;;;;;;4.83;2.80;;;;;;;;;;5028195;28;20692;-30
2024/01/16 09:24:36;;;;;;;6.67;3.40;;;;;;;;;;5034643;28;20252;-29
2024/01/16 09:27:06;;;;;;;6.63;3.00;;;;;;;;;;5044375;28;20226;-29
2024/01/16 09:29:35;;;;;;;3.20;2.63;;;;;;;;;;5039051;28;20230;-31
2024/01/16 09:32:02;;;;;;;3.30;2.80;;;;;;;;;;5036023;28;20220;-33
2024/01/16 09:34:34;;;;;;;3.73;3.10;;;;;;;;;;5030866;28;20253;-30
2024/01/16 09:37:03;;;;;;;4.33;2.90;;;;;;;;;;5044602;28;20277;-35
2024/01/16 09:39:32;;;;;;;4.33;3.10;;;;;;;;;;5043621;28;20551;-33
2024/01/16 09:42:05;;;;;;;4.53;2.57;;;;;;;;;;5035076;28;20225;-34
2024/01/16 09:44:34;;;;;;;4.83;3.00;;;;;;;;;;5043871;28;20203;-32
2024/01/16 09:47:15;;;;;;;5.37;2.93;;;;;;;;;;5040615;28;20202;-34
2024/01/16 09:49:50;;;;;;;4.87;3.00;;;;;;;;;;5045679;28;20280;-31
2024/01/16 09:52:17;;;;;;;4.47;2.80;;;;;;;;;;5042517;28;20288;-34
2024/01/16 09:54:45;;;;;;;6.27;3.73;;;;;;;;;;5036685;28;20222;-33
2024/01/16 09:57:15;;;;;;;5.00;3.40;;;;;;;;;;5032619;28;20203;-29
2024/01/16 09:59:43;;;;;;;7.20;3.30;;;;;;;;;;5042365;28;20331;-31
2024/01/16 10:02:16;;;;;;;4.00;3.20;;;;;;;;;;5033979;28;20598;-31
2024/01/16 10:04:44;;;;;;;6.40;3.53;;;;;;;;;;5028969;28;20358;-34
2024/01/16 10:07:14;;;;;;;6.90;2.90;;;;;;;;;;5033737;28;20279;-31
2024/01/16 10:09:41;;;;;;;5.50;3.40;;;;;;;;;;5035143;28;20302;-36
2024/01/16 10:12:10;;;;;;;5.30;3.13;;;;;;;;;;5042110;28;20207;-32
2024/01/16 10:14:40;;;;;;;3.73;2.73;;;;;;;;;;5039086;28;20258;-34
2024/01/16 10:17:14;;;;;;;4.50;2.77;;;;;;;;;;5040188;28;20230;-35
2024/01/16 10:19:49;;;;;;;9.77;2.97;;;;;;;;;;5037347;28;20292;-32
2024/01/16 10:22:21;;;;;;;3.93;2.87;;;;;;;;;;5041776;28;20206;-35
2024/01/16 10:24:49;;;;;;;4.87;3.30;;;;;;;;;;5036011;28;20206;-30
2024/01/16 10:27:18;;;;;;;4.63;2.57;;;;;;;;;;5035103;28;20203;-33
2024/01/16 10:29:59;;;;;;;4.23;2.67;;;;;;;;;;5047054;28;20253;-36
2024/01/16 10:32:37;;;;;;;3.10;2.80;;;;;;;;;;5046674;28;20230;-33
2024/01/16 10:35:08;;;;;;;6.20;3.37;;;;;;;;;;5031654;28;20218;-35
2024/01/16 10:37:50;;;;;;;3.50;2.37;;;;;;;;;;5045347;28;20651;-30
2024/01/16 10:40:19;;;;;;;4.47;2.80;;;;;;;;;;5035395;28;20230;-32
2024/01/16 10:42:48;;;;;;;5.23;3.10;;;;;;;;;;5031614;28;20297;-34
2024/01/16 10:45:22;;;;;;;5.17;3.30;;;;;;;;;;5029958;28;20230;-36
2024/01/16 10:48:03;;;;;;;4.53;3.00;;;;;;;;;;5037787;28;20289;-35
2024/01/16 10:50:33;;;;;;;5.33;3.27;;;;;;;;;;5041070;28;20245;-34
2024/01/16 10:53:05;;;;;;;5.63;2.67;;;;;;;;;;5042180;28;20202;-32
2024/01/16 10:55:35;;;;;;;5.83;3.70;;;;;;;;;;5035064;28;20207;-32
2024/01/16 10:58:07;;;;;;;5.00;3.20;;;;;;;;;;5044620;28;20202;-31
2024/01/16 11:00:37;;;;;;;7.27;3.20;;;;;;;;;;5035989;28;20229;-31
2024/01/16 11:03:10;;;;;;;4.63;3.00;;;;;;;;;;5041885;28;20206;-33
2024/01/16 11:05:43;;;;;;;9.20;3.67;;;;;;;;;;5036874;28;20473;-33
2024/01/16 11:08:16;;;;;;;5.27;3.60;;;;;;;;;;5034720;28;20203;-35
2024/01/16 11:10:45;;;;;;;3.33;2.83;;;;;;;;;;5044168;28;20222;-34
2024/01/16 11:13:14;;;;;;;10.03;3.67;;;;;;;;;;5048122;28;20206;-33
2024/01/16 11:15:45;;;;;;;6.23;3.30;;;;;;;;;;5032140;28;20313;-32
2024/01/16 11:18:15;;;;;;;6.07;3.13;;;;;;;;;;5039505;28;20284;-35
2024/01/16 11:23:25;;;;;;;5.70;3.20;;;;;;;;;;5058599;28;20221;-32
2024/01/16 11:25:58;;;;;;;6.30;3.73;;;;;;;;;;5065631;28;20262;-36
2024/01/16 11:28:32;;;;;;;8.73;3.20;;;;;;;;;;5057516;28;20305;-32
2024/01/16 11:31:00;;;;;;;5.80;3.27;;;;;;;;;;5050100;28;20233;-36
2024/01/16 11:33:47;;;;;;;5.60;3.10;;;;;;;;;;5053918;28;20309;-36
2024/01/16 11:39:15;;;;;;;3.20;2.87;;;;;;;;;;5046630;28;20204;-35
2024/01/16 11:41:55;;;;;;;6.13;2.97;;;;;;;;;;5052299;28;20263;-32
2024/01/16 11:44:39;;;;;;;7.10;3.60;;;;;;;;;;5048475;28;20206;-32
2024/01/16 11:47:12;;;;;;;5.23;2.97;;;;;;;;;;5045559;28;20206;-30
2024/01/16 11:49:45;;;;;;;4.57;3.10;;;;;;;;;;5048336;28;20230;-31
2024/01/16 11:52:15;;;;;;;4.13;2.83;;;;;;;;;;5045528;28;20212;-33
2024/01/16 11:54:55;;;;;;;5.10;3.27;;;;;;;;;;5056019;28;20324;-36
2024/01/16 11:57:50;;;;;;;6.33;4.17;;;;;;;;;;5052945;28;20206;-30
2024/01/16 12:00:21;;;;;;;5.23;3.83;;;;;;;;;;5057879;28;20217;-32
2024/01/16 12:03:01;;;;;;;8.30;3.90;;;;;;;;;;5071997;28;20296;-35
2024/01/16 12:05:38;;;;;;;3.97;3.10;;;;;;;;;;5046196;28;20209;-36
2024/01/16 12:08:23;;;;;;;4.77;3.00;;;;;;;;;;5045605;28;20206;-36
2024/01/16 12:10:55;;;;;;;4.07;2.40;;;;;;;;;;5053387;28;20312;-32
2024/01/16 12:13:23;;;;;;;6.60;3.17;;;;;;;;;;5047350;28;20669;-32
2024/01/16 12:16:05;;;;;;;4.40;2.93;;;;;;;;;;5045381;28;20221;-31
2024/01/16 12:18:39;;;;;;;5.27;2.60;;;;;;;;;;5053092;28;20213;-31
2024/01/16 12:21:15;;;;;;;3.40;2.50;;;;;;;;;;5046420;28;20624;-36
2024/01/16 12:31:22;;;;;;;4.53;2.50;;;;;;;;;;5037436;28;20550;-26
2024/01/16 12:33:50;;;;;;;3.13;1.93;;;;;;;;;;5039658;28;20226;-28
2024/01/16 12:36:18;;;;;;;5.23;1.83;;;;;;;;;;5024019;28;20253;-27
2024/01/16 12:38:59;;;;;;;4.10;2.30;;;;;;;;;;5033923;28;20264;-26
2024/01/16 12:41:28;;;;;;;4.60;2.13;;;;;;;;;;5042831;28;20221;-26
2024/01/16 12:43:57;;;;;;;2.27;1.60;;;;;;;;;;5031182;28;20260;-27
2024/01/16 12:46:26;;;;;;;2.67;2.00;;;;;;;;;;5040950;28;20268;-26
2024/01/16 12:49:01;;;;;;;1.87;1.73;;;;;;;;;;5029592;28;20237;-27
2024/01/16 12:51:31;;;;;;;2.80;1.73;;;;;;;;;;5036527;28;20206;-26
2024/01/16 12:54:14;;;;;;;3.47;2.90;;;;;;;;;;5041231;28;20222;-27
2024/01/16 12:56:49;;;;;;;5.83;2.77;;;;;;;;;;5041172;28;20210;-27
2024/01/16 12:59:17;;;;;;;5.17;1.90;;;;;;;;;;5029592;28;20230;-27
2024/01/16 13:01:47;;;;;;;3.17;2.23;;;;;;;;;;5032561;28;20210;-26
2024/01/16 13:04:18;;;;;;;1.60;1.50;;;;;;;;;;5026964;28;20285;-25
2024/01/16 13:06:48;;;;;;;4.03;2.07;;;;;;;;;;5029595;28;20240;-25
2024/01/16 13:09:16;;;;;;;6.33;2.80;;;;;;;;;;5039922;28;20288;-26
2024/01/16 13:11:49;;;;;;;6.93;3.80;;;;;;;;;;5041081;28;20693;-26
2024/01/16 13:14:26;;;;;;;7.73;4.60;;;;;;;;;;5042335;28;20234;-28
2024/01/16 13:16:57;;;;;;;7.23;4.87;;;;;;;;;;5032068;28;20206;-27
2024/01/16 13:19:33;;;;;;;3.03;1.93;;;;;;;;;;5030237;28;20234;-27
2024/01/16 13:22:04;;;;;;;2.03;1.70;;;;;;;;;;5024039;28;20199;-25
2024/01/16 13:24:33;;;;;;;2.70;1.80;;;;;;;;;;5032909;28;20276;-27
2024/01/16 13:27:09;;;;;;;2.87;1.43;;;;;;;;;;5040785;28;20234;-26
2024/01/16 13:29:40;;;;;;;2.60;1.90;;;;;;;;;;5026370;28;20238;-26
2024/01/16 13:32:18;;;;;;;2.20;1.97;;;;;;;;;;5046829;28;20210;-26
2024/01/16 13:34:50;;;;;;;2.30;1.87;;;;;;;;;;5031639;28;20222;-26
2024/01/16 13:37:22;;;;;;;2.73;1.67;;;;;;;;;;5028744;28;20294;-27
2024/01/16 13:39:53;;;;;;;1.50;1.40;;;;;;;;;;5031835;28;20230;-27
2024/01/16 13:42:21;;;;;;;3.53;2.10;;;;;;;;;;5035983;28;20219;-28
2024/01/16 13:44:50;;;;;;;2.77;2.00;;;;;;;;;;5047960;28;20277;-25
2024/01/16 13:47:22;;;;;;;3.37;1.57;;;;;;;;;;5031297;28;20209;-26
2024/01/16 13:49:57;;;;;;;2.57;1.43;;;;;;;;;;5024214;28;20227;-25
2024/01/16 13:52:25;;;;;;;2.47;1.57;;;;;;;;;;5023821;28;20572;-26
2024/01/16 13:54:52;;;;;;;2.83;1.70;;;;;;;;;;5040979;28;20250;-27
2024/01/16 13:57:24;;;;;;;3.37;1.77;;;;;;;;;;5038317;28;20248;-27
2024/01/16 13:59:54;;;;;;;1.70;1.60;;;;;;;;;;5028273;28;20233;-26
2024/01/16 14:02:24;;;;;;;4.27;1.90;;;;;;;;;;5032125;28;20203;-27
2024/01/16 14:04:54;;;;;;;2.87;1.80;;;;;;;;;;5030649;28;20309;-26
2024/01/16 14:07:26;;;;;;;5.60;1.80;;;;;;;;;;5033374;28;20222;-27
2024/01/16 14:10:03;;;;;;;2.03;1.50;;;;;;;;;;5039965;28;20317;-26
2024/01/16 14:12:32;;;;;;;3.20;1.67;;;;;;;;;;5036394;28;20210;-24
2024/01/16 14:17:35;;;;;;;3.20;1.57;;;;;;;;;;5053564;28;20309;-36
2024/01/16 14:20:05;;;;;;;7.77;1.70;;;;;;;;;;5045674;28;20230;-31
2024/01/16 14:22:33;;;;;;;1.80;1.60;;;;;;;;;;5055231;28;20206;-35
2024/01/16 14:25:10;;;;;;;2.83;1.77;;;;;;;;;;5055371;28;20263;-32
2024/01/16 14:27:40;;;;;;;2.53;1.80;;;;;;;;;;5059151;28;20296;-32
2024/01/16 14:30:16;;;;;;;2.83;2.07;;;;;;;;;;5056306;28;20232;-33
2024/01/16 14:32:50;;;;;;;2.00;1.80;;;;;;;;;;5071781;28;20208;-35
2024/01/16 14:35:22;;;;;;;2.20;1.63;;;;;;;;;;5041912;28;20225;-36
2024/01/16 14:37:51;;;;;;;1.73;1.53;;;;;;;;;;5054827;28;20214;-33
2024/01/16 14:40:25;;;;;;;1.70;1.60;;;;;;;;;;5063755;28;20234;-35
2024/01/16 14:45:32;;;;;;;1.90;1.67;;;;;;;;;;5050233;28;20686;-35
2024/01/16 14:48:10;;;;;;;5.60;1.63;;;;;;;;;;5054703;28;20214;-33
2024/01/16 14:50:39;;;;;;;2.20;1.73;;;;;;;;;;5050687;28;20249;-29
2024/01/16 14:53:08;;;;;;;2.27;1.33;;;;;;;;;;5054499;28;20206;-33
2024/01/16 14:55:42;;;;;;;2.30;1.70;;;;;;;;;;5054401;28;20228;-31
2024/01/16 14:58:18;;;;;;;3.23;2.00;;;;;;;;;;5050965;28;20213;-33
2024/01/16 15:00:51;;;;;;;4.20;2.20;;;;;;;;;;5048436;28;20229;-33
2024/01/16 15:03:22;;;;;;;2.40;2.00;;;;;;;;;;5045088;28;20250;-31
2024/01/16 15:05:53;;;;;;;2.33;1.80;;;;;;;;;;5047920;28;20743;-31
2024/01/16 15:08:26;;;;;;;2.77;1.97;;;;;;;;;;5060371;28;20210;-31
2024/01/16 15:10:55;;;;;;;4.90;2.33;;;;;;;;;;5038895;28;20250;-35
2024/01/16 15:13:30;;;;;;;3.10;1.90;;;;;;;;;;5048702;28;20741;-30
2024/01/16 15:21:02;;;;;;;3.33;1.70;;;;;;;;;;5024884;28;20227;-31
2024/01/16 15:23:42;;;;;;;4.60;1.87;;;;;;;;;;5034759;28;20213;-30
2024/01/16 15:26:20;;;;;;;2.63;1.67;;;;;;;;;;5035053;28;20659;-30
2024/01/16 15:28:53;;;;;;;3.30;2.00;;;;;;;;;;5031274;28;20210;-33
2024/01/16 15:31:28;;;;;;;2.87;1.77;;;;;;;;;;5026532;28;20498;-36
2024/01/16 15:34:01;;;;;;;3.83;1.93;;;;;;;;;;5040672;28;20699;-33
2024/01/16 15:36:37;;;;;;;5.47;1.87;;;;;;;;;;5034499;28;20210;-33
2024/01/16 15:39:06;;;;;;;1.63;1.43;;;;;;;;;;5033935;28;20206;-34
2024/01/16 15:41:39;;;;;;;3.40;1.70;;;;;;;;;;5034841;28;20221;-36
2024/01/16 15:44:11;;;;;;;1.53;1.43;;;;;;;;;;5029668;28;20211;-30
2024/01/16 15:47:03;;;;;;;3.27;1.50;;;;;;;;;;5042454;28;20202;-31
2024/01/16 15:49:39;;;;;;;2.27;1.60;;;;;;;;;;5023824;28;20222;-33
2024/01/16 15:52:13;;;;;;;2.47;1.73;;;;;;;;;;5033377;28;20213;-36